createdAt,value
2022-12-24T00:01:19.568Z,15.57
2022-12-24T00:03:46.884Z,16.23
2022-12-24T00:06:19.964Z,17.85
2022-12-24T00:08:47.711Z,19.95
2022-12-24T00:11:14.988Z,23.80
2022-12-24T00:13:42.209Z,20.67
2022-12-24T00:16:09.251Z,25.85
2022-12-24T00:18:40.075Z,22.80
2022-12-24T00:23:40.622Z,24.38
2022-12-24T00:26:08.116Z,25.40
2022-12-24T00:28:35.338Z,24.85
2022-12-24T00:31:16.037Z,25.98
2022-12-24T00:33:45.276Z,27.55
2022-12-24T00:36:12.460Z,24.13
2022-12-24T00:38:39.956Z,23.30
2022-12-24T00:41:24.649Z,27.45
2022-12-24T00:43:54.749Z,27.35
2022-12-24T00:46:23.483Z,27.27
2022-12-24T00:48:50.847Z,25.15
2022-12-24T00:51:18.584Z,26.77
2022-12-24T00:53:46.031Z,28.25
2022-12-24T00:56:13.482Z,27.15
2022-12-24T00:58:40.811Z,28.60
2022-12-24T01:01:08.059Z,27.80
2022-12-24T01:03:38.367Z,25.38
2022-12-24T01:06:14.038Z,26.00
2022-12-24T01:08:41.635Z,27.02
2022-12-24T01:11:10.288Z,31.70
2022-12-24T01:13:38.337Z,32.22
2022-12-24T01:16:19.193Z,31.08
2022-12-24T01:18:46.582Z,30.27
2022-12-24T01:21:15.203Z,29.98
2022-12-24T01:23:42.271Z,32.72
2022-12-24T01:26:12.374Z,28.02
2022-12-24T01:28:39.894Z,27.48
2022-12-24T01:31:17.125Z,26.98
2022-12-24T01:33:45.460Z,27.50
2022-12-24T01:36:14.249Z,25.67
2022-12-24T01:38:41.826Z,22.52
2022-12-24T01:41:37.692Z,21.08
2022-12-24T01:44:36.060Z,23.02
2022-12-24T01:47:09.538Z,21.05
2022-12-24T01:49:41.226Z,23.38
2022-12-24T01:52:15.961Z,20.55
2022-12-24T01:55:04.061Z,16.77
2022-12-24T01:57:41.744Z,15.05
2022-12-24T02:00:13.089Z,14.07
2022-12-24T02:02:44.478Z,15.48
2022-12-24T02:05:43.116Z,17.35
2022-12-24T02:08:11.215Z,18.90
2022-12-24T02:10:38.409Z,13.30
2022-12-24T02:13:06.744Z,16.73
2022-12-24T02:15:56.812Z,18.40
2022-12-24T02:18:41.619Z,16.38
2022-12-24T02:21:28.173Z,13.90
2022-12-24T02:27:21.787Z,14.07
2022-12-24T02:30:24.633Z,13.88
2022-12-24T02:33:24.922Z,13.80
2022-12-24T02:36:11.731Z,11.35
2022-12-24T02:38:53.007Z,8.95
2022-12-24T02:41:48.867Z,12.82
2022-12-24T02:44:16.577Z,14.77
2022-12-24T02:46:44.004Z,20.50
2022-12-24T02:49:11.700Z,29.25
2022-12-24T02:51:38.919Z,34.55
2022-12-24T02:54:06.720Z,39.83
2022-12-24T02:56:50.543Z,40.58
2022-12-24T02:59:35.591Z,38.03
2022-12-24T03:02:46.554Z,40.08
2022-12-24T03:05:37.937Z,39.83
2022-12-24T03:08:22.091Z,38.20
2022-12-24T03:10:56.822Z,38.25
2022-12-24T03:13:25.542Z,31.33
2022-12-24T03:15:53.097Z,36.28
2022-12-24T03:18:27.180Z,35.35
2022-12-24T03:21:06.775Z,33.03
2022-12-24T03:23:35.035Z,32.17
2022-12-24T03:26:07.741Z,37.78
2022-12-24T03:28:35.686Z,34.40
2022-12-24T03:31:06.006Z,28.10
2022-12-24T03:33:33.639Z,31.40
2022-12-24T03:36:00.993Z,30.98
2022-12-24T03:38:28.020Z,32.85
2022-12-24T03:40:55.257Z,33.95
2022-12-24T03:43:22.534Z,28.25
2022-12-24T03:45:49.707Z,31.38
2022-12-24T03:48:16.928Z,38.22
2022-12-24T03:50:44.092Z,33.03
2022-12-24T03:53:11.178Z,31.73
2022-12-24T03:55:39.596Z,37.28
2022-12-24T03:58:06.944Z,37.22
2022-12-24T04:00:34.124Z,30.25
2022-12-24T04:03:01.369Z,38.47
2022-12-24T04:05:28.451Z,30.02
2022-12-24T04:07:55.517Z,28.00
2022-12-24T04:10:22.725Z,28.20
2022-12-24T04:12:49.833Z,37.15
2022-12-24T04:15:16.984Z,36.75
2022-12-24T04:17:45.531Z,35.08
2022-12-24T04:20:13.119Z,30.30
2022-12-24T04:22:40.707Z,33.97
2022-12-24T04:25:08.807Z,33.42
2022-12-24T04:27:35.831Z,42.33
2022-12-24T04:30:03.231Z,34.42
2022-12-24T04:32:30.411Z,39.65
2022-12-24T04:34:57.837Z,39.05
2022-12-24T04:37:24.994Z,37.85
2022-12-24T04:39:52.016Z,38.60
2022-12-24T04:42:19.373Z,42.05
2022-12-24T04:44:46.384Z,38.40
2022-12-24T04:47:13.374Z,42.88
2022-12-24T04:49:40.547Z,36.38
2022-12-24T04:52:07.631Z,40.58
2022-12-24T04:54:34.808Z,36.78
2022-12-24T04:57:01.907Z,41.58
2022-12-24T04:59:28.973Z,36.30
2022-12-24T05:01:56.179Z,44.22
2022-12-24T05:04:23.472Z,43.85
2022-12-24T05:06:50.539Z,44.22
2022-12-24T05:09:17.695Z,39.53
2022-12-24T05:11:44.854Z,47.00
2022-12-24T05:14:12.127Z,34.13
2022-12-24T05:16:39.327Z,35.00
2022-12-24T05:19:06.405Z,42.88
2022-12-24T05:21:33.508Z,38.00
2022-12-24T05:24:19.498Z,38.78
2022-12-24T05:26:55.667Z,40.83
2022-12-24T05:29:23.619Z,45.25
2022-12-24T05:31:50.922Z,37.22
2022-12-24T05:34:18.205Z,47.65
2022-12-24T05:36:45.887Z,40.40
2022-12-24T05:39:17.913Z,40.42
2022-12-24T05:41:46.223Z,40.67
2022-12-24T05:44:14.768Z,35.38
2022-12-24T05:46:42.306Z,40.72
2022-12-24T05:49:09.624Z,44.42
2022-12-24T05:51:37.050Z,38.15
2022-12-24T05:54:05.141Z,46.97
2022-12-24T05:56:32.777Z,37.03
2022-12-24T05:58:59.962Z,35.90
2022-12-24T06:01:27.928Z,44.40
2022-12-24T06:03:57.711Z,45.38
2022-12-24T06:06:28.301Z,43.72
2022-12-24T06:08:55.998Z,43.75
2022-12-24T06:11:26.979Z,53.63
2022-12-24T06:13:55.125Z,43.50
2022-12-24T06:16:24.035Z,43.17
2022-12-24T06:18:52.202Z,40.92
2022-12-24T06:21:19.790Z,41.55
2022-12-24T06:23:47.777Z,46.83
2022-12-24T06:26:19.473Z,39.85
2022-12-24T06:28:47.378Z,40.38
2022-12-24T06:31:18.668Z,40.25
2022-12-24T06:33:45.938Z,45.38
2022-12-24T06:36:18.942Z,42.20
2022-12-24T06:38:47.867Z,40.28
2022-12-24T06:41:16.041Z,43.17
2022-12-24T06:43:52.570Z,47.03
2022-12-24T06:46:20.663Z,43.13
2022-12-24T06:48:48.506Z,45.97
2022-12-24T06:51:19.701Z,38.63
2022-12-24T06:53:48.069Z,44.78
2022-12-24T06:56:15.435Z,43.15
2022-12-24T06:58:43.156Z,41.55
2022-12-24T07:01:14.209Z,43.53
2022-12-24T07:03:41.845Z,42.75
2022-12-24T07:06:25.472Z,44.83
2022-12-24T07:08:52.823Z,41.33
2022-12-24T07:11:21.003Z,34.92
2022-12-24T07:13:48.413Z,38.33
2022-12-24T07:16:15.881Z,38.13
2022-12-24T07:18:44.195Z,38.08
2022-12-24T07:21:11.232Z,35.00
2022-12-24T07:23:38.422Z,38.30
2022-12-24T07:26:07.247Z,35.05
2022-12-24T07:28:34.427Z,35.58
2022-12-24T07:31:01.627Z,38.10
2022-12-24T07:33:29.228Z,35.42
2022-12-24T07:36:01.569Z,38.25
2022-12-24T07:38:29.503Z,39.38
2022-12-24T07:40:57.860Z,34.17
2022-12-24T07:43:26.041Z,41.25
2022-12-24T07:45:58.526Z,36.75
2022-12-24T07:48:27.803Z,33.55
2022-12-24T07:50:56.644Z,37.83
2022-12-24T07:53:26.124Z,41.22
2022-12-24T07:55:53.896Z,35.97
2022-12-24T07:58:21.985Z,34.38
2022-12-24T08:00:49.193Z,39.05
2022-12-24T08:03:19.227Z,35.75
2022-12-24T08:05:47.461Z,32.08
2022-12-24T08:08:14.846Z,33.05
2022-12-24T08:10:45.658Z,36.00
2022-12-24T08:13:14.087Z,28.40
2022-12-24T08:15:41.469Z,36.42
2022-12-24T08:18:11.949Z,37.10
2022-12-24T08:20:41.245Z,35.60
2022-12-24T08:23:09.671Z,46.78
2022-12-24T08:25:37.781Z,36.47
2022-12-24T08:28:06.226Z,37.85
2022-12-24T08:30:34.137Z,35.22
2022-12-24T08:33:01.595Z,37.45
2022-12-24T08:35:28.893Z,35.33
2022-12-24T08:37:56.446Z,33.58
2022-12-24T08:40:24.023Z,35.72
2022-12-24T08:42:51.501Z,37.47
2022-12-24T08:45:18.910Z,36.80
2022-12-24T08:47:46.207Z,39.15
2022-12-24T08:50:13.597Z,35.28
2022-12-24T08:52:40.765Z,35.08
2022-12-24T08:55:08.552Z,36.80
2022-12-24T08:57:37.585Z,41.58
2022-12-24T09:00:09.606Z,36.83
2022-12-24T09:02:37.170Z,42.72
2022-12-24T09:05:05.236Z,38.75
2022-12-24T09:07:33.160Z,43.55
2022-12-24T09:10:00.377Z,42.25
2022-12-24T09:12:27.582Z,43.92
2022-12-24T09:14:59.555Z,42.10
2022-12-24T09:17:28.475Z,38.75
2022-12-24T09:19:55.539Z,38.53
2022-12-24T09:22:22.820Z,44.53
2022-12-24T09:24:49.979Z,41.55
2022-12-24T09:27:17.245Z,43.45
2022-12-24T09:29:44.563Z,34.50
2022-12-24T09:32:11.791Z,41.40
2022-12-24T09:34:40.213Z,41.92
2022-12-24T09:37:07.492Z,34.90
2022-12-24T09:39:34.721Z,36.92
2022-12-24T09:42:42.181Z,36.83
2022-12-24T09:48:00.325Z,37.38
2022-12-24T09:51:06.278Z,41.53
2022-12-24T09:53:50.483Z,32.40
2022-12-24T09:56:26.249Z,31.85
2022-12-24T09:59:01.017Z,29.55
2022-12-24T10:01:32.144Z,27.48
2022-12-24T10:04:11.614Z,32.67
2022-12-24T10:06:48.549Z,23.13
2022-12-24T10:09:34.688Z,23.98
2022-12-24T10:12:14.505Z,20.30
2022-12-24T10:15:10.609Z,29.38
2022-12-24T10:18:01.743Z,28.17
2022-12-24T10:21:08.197Z,21.92
2022-12-24T10:23:59.456Z,26.15
2022-12-24T10:27:01.534Z,27.83
2022-12-24T10:29:34.719Z,24.70
2022-12-24T10:32:30.583Z,27.92
2022-12-24T10:35:15.725Z,26.05
2022-12-24T10:37:47.283Z,31.27
2022-12-24T10:40:45.046Z,27.58
2022-12-24T10:43:19.265Z,29.17
2022-12-24T10:45:56.161Z,27.98
2022-12-24T10:48:37.710Z,30.83
2022-12-24T10:51:46.536Z,30.63
2022-12-24T10:54:27.029Z,28.60
2022-12-24T10:57:01.054Z,30.77
2022-12-24T10:59:33.920Z,32.72
2022-12-24T11:02:02.378Z,28.20
2022-12-24T11:04:33.012Z,36.85
2022-12-24T11:07:06.664Z,30.58
2022-12-24T11:09:40.453Z,32.00
2022-12-24T11:12:19.245Z,38.03
2022-12-24T11:14:46.379Z,34.67
2022-12-24T11:17:23.852Z,39.75
2022-12-24T11:19:51.378Z,43.03
2022-12-24T11:22:28.484Z,37.88
2022-12-24T11:25:20.249Z,34.88
2022-12-24T11:27:51.413Z,35.97
2022-12-24T11:30:27.545Z,42.30
2022-12-24T11:33:00.989Z,34.60
2022-12-24T11:35:34.455Z,38.42
2022-12-24T11:38:01.594Z,38.65
2022-12-24T11:40:37.385Z,37.42
2022-12-24T11:43:14.323Z,44.08
2022-12-24T11:45:56.781Z,36.58
2022-12-24T11:48:34.697Z,34.10
2022-12-24T11:51:05.431Z,30.98
2022-12-24T11:53:48.186Z,28.73
2022-12-24T11:56:33.251Z,34.67
2022-12-24T11:59:10.583Z,30.75
2022-12-24T12:02:16.751Z,38.13
2022-12-24T12:04:48.961Z,32.42
2022-12-24T12:07:26.147Z,32.72
2022-12-24T12:10:04.128Z,35.50
2022-12-24T12:12:48.275Z,31.02
2022-12-24T12:15:25.720Z,23.33
2022-12-24T12:18:13.266Z,29.35
2022-12-24T12:20:54.688Z,30.60
2022-12-24T12:23:58.089Z,27.27
2022-12-24T12:26:28.638Z,28.23
2022-12-24T12:29:25.613Z,29.55
2022-12-24T12:34:40.302Z,23.77
2022-12-24T12:37:31.876Z,27.65
2022-12-24T12:39:59.468Z,24.10
2022-12-24T12:42:35.462Z,23.42
2022-12-24T12:45:37.767Z,26.88
2022-12-24T12:48:29.503Z,23.45
2022-12-24T12:51:36.054Z,29.98
2022-12-24T12:54:47.813Z,26.00
2022-12-24T12:57:20.559Z,24.25
2022-12-24T13:00:05.513Z,22.48
2022-12-24T13:03:00.234Z,25.88
2022-12-24T13:06:01.554Z,25.55
2022-12-24T13:09:09.969Z,28.48
2022-12-24T13:12:24.587Z,27.85
2022-12-24T13:15:40.826Z,26.45
2022-12-24T13:18:35.617Z,27.55
2022-12-24T13:21:03.033Z,29.23
2022-12-24T13:23:30.193Z,22.67
2022-12-24T13:25:58.774Z,26.77
2022-12-24T13:28:25.720Z,23.88
2022-12-24T13:31:02.171Z,24.85
2022-12-24T13:33:38.498Z,22.83
2022-12-24T13:36:16.595Z,21.35
2022-12-24T13:38:54.665Z,23.92
2022-12-24T13:41:40.574Z,22.02
2022-12-24T13:44:12.650Z,17.38
2022-12-24T13:47:25.341Z,21.70
2022-12-24T13:50:13.199Z,26.38
2022-12-24T13:52:52.840Z,19.80
2022-12-24T13:55:20.873Z,20.92
2022-12-24T13:58:19.726Z,24.95
2022-12-24T14:01:03.642Z,22.45
2022-12-24T14:03:43.033Z,25.25
2022-12-24T14:06:24.145Z,24.70
2022-12-24T14:08:55.876Z,26.13
2022-12-24T14:11:26.427Z,23.75
2022-12-24T14:14:27.907Z,21.95
2022-12-24T14:17:00.379Z,24.63
2022-12-24T14:19:44.094Z,22.75
2022-12-24T14:22:34.992Z,21.63
2022-12-24T14:25:14.067Z,21.85
2022-12-24T14:28:17.321Z,25.55
2022-12-24T14:30:44.539Z,20.83
2022-12-24T14:33:32.860Z,22.63
2022-12-24T14:36:02.108Z,18.98
2022-12-24T14:38:30.551Z,21.88
2022-12-24T14:41:35.360Z,24.40
2022-12-24T14:44:21.741Z,19.38
2022-12-24T14:47:01.657Z,23.77
2022-12-24T14:49:52.865Z,24.17
2022-12-24T14:53:14.995Z,18.45
2022-12-24T14:55:36.746Z,20.52
2022-12-24T15:01:34.928Z,22.27
2022-12-24T15:04:11.435Z,19.40
2022-12-24T15:06:42.897Z,20.80
2022-12-24T15:09:30.588Z,19.52
2022-12-24T15:12:04.799Z,19.90
2022-12-24T15:14:44.048Z,19.10
2022-12-24T15:17:12.960Z,19.92
2022-12-24T15:19:45.190Z,17.83
2022-12-24T15:22:26.476Z,18.80
2022-12-24T15:24:54.619Z,23.33
2022-12-24T15:27:27.976Z,18.63
2022-12-24T15:29:58.319Z,21.85
2022-12-24T15:32:25.960Z,19.98
2022-12-24T15:34:55.179Z,21.27
2022-12-24T15:37:26.476Z,20.25
2022-12-24T15:40:09.398Z,19.23
2022-12-24T15:42:41.664Z,22.77
2022-12-24T15:45:26.613Z,23.17
2022-12-24T15:48:05.948Z,24.42
2022-12-24T15:50:37.167Z,22.58
2022-12-24T15:53:20.251Z,19.85
2022-12-24T15:56:08.555Z,18.55
2022-12-24T15:58:39.711Z,22.50
2022-12-24T16:01:10.104Z,23.77
2022-12-24T16:03:55.739Z,24.40
2022-12-24T16:06:23.515Z,26.77
2022-12-24T16:08:51.937Z,25.00
2022-12-24T16:11:24.006Z,23.23
2022-12-24T16:13:54.753Z,22.02
2022-12-24T16:16:35.075Z,23.40
2022-12-24T16:19:05.717Z,30.10
2022-12-24T16:21:41.903Z,23.00
2022-12-24T16:24:18.371Z,23.20
2022-12-24T16:26:45.884Z,22.67
2022-12-24T16:29:13.054Z,21.70
2022-12-24T16:31:58.459Z,34.05
2022-12-24T16:34:31.585Z,25.17
2022-12-24T16:37:00.060Z,24.98
2022-12-24T16:39:34.597Z,26.80
2022-12-24T16:42:22.695Z,24.77
2022-12-24T16:44:53.755Z,26.55
2022-12-24T16:47:33.294Z,24.65
2022-12-24T16:50:06.324Z,23.42
2022-12-24T16:52:36.158Z,26.25
2022-12-24T16:55:03.449Z,24.35
2022-12-24T16:57:34.076Z,23.67
2022-12-24T17:00:06.659Z,24.02
2022-12-24T17:02:33.963Z,22.75
2022-12-24T17:05:01.236Z,24.50
2022-12-24T17:07:28.553Z,27.60
2022-12-24T17:09:55.796Z,25.42
2022-12-24T17:12:22.959Z,24.33
2022-12-24T17:14:49.989Z,24.25
2022-12-24T17:17:24.373Z,27.10
2022-12-24T17:19:51.827Z,35.95
2022-12-24T17:22:19.870Z,26.48
2022-12-24T17:24:47.549Z,27.63
2022-12-24T17:27:15.235Z,32.72
2022-12-24T17:29:42.560Z,29.85
2022-12-24T17:32:09.627Z,26.75
2022-12-24T17:34:36.885Z,28.48
2022-12-24T17:37:04.004Z,26.27
2022-12-24T17:39:33.643Z,32.25
2022-12-24T17:42:00.771Z,27.67
2022-12-24T17:44:28.020Z,31.45
2022-12-24T17:46:55.213Z,24.42
2022-12-24T17:49:22.380Z,32.95
2022-12-24T17:51:49.375Z,31.02
2022-12-24T17:54:16.630Z,29.95
2022-12-24T17:56:43.778Z,34.80
2022-12-24T17:59:11.030Z,29.45
2022-12-24T18:01:38.243Z,31.55
2022-12-24T18:04:06.076Z,35.35
2022-12-24T18:06:33.423Z,30.15
2022-12-24T18:09:00.657Z,25.85
2022-12-24T18:11:32.854Z,31.33
2022-12-24T18:14:02.384Z,26.15
2022-12-24T18:16:38.343Z,30.42
2022-12-24T18:21:35.522Z,30.45
2022-12-24T18:24:03.077Z,36.45
2022-12-24T18:26:31.007Z,30.63
2022-12-24T18:29:04.761Z,32.15
2022-12-24T18:31:33.749Z,38.38
2022-12-24T18:34:02.899Z,36.50
2022-12-24T18:36:30.994Z,29.83
2022-12-24T18:38:58.756Z,41.92
2022-12-24T18:41:29.357Z,35.45
2022-12-24T18:43:57.808Z,28.55
2022-12-24T18:46:29.464Z,36.28
2022-12-24T18:48:59.561Z,32.80
2022-12-24T18:51:36.128Z,32.28
2022-12-24T18:54:05.209Z,30.92
2022-12-24T18:56:32.744Z,32.28
2022-12-24T18:59:03.148Z,38.42
2022-12-24T19:01:33.772Z,35.45
2022-12-24T19:04:04.401Z,28.80
2022-12-24T19:06:31.665Z,35.75
2022-12-24T19:09:00.769Z,33.63
2022-12-24T19:11:32.150Z,33.22
2022-12-24T19:14:01.020Z,34.83
2022-12-24T19:16:30.446Z,36.33
2022-12-24T19:18:58.077Z,38.55
2022-12-24T19:21:26.066Z,35.72
2022-12-24T19:23:53.265Z,32.88
2022-12-24T19:26:21.435Z,33.28
2022-12-24T19:28:49.099Z,32.45
2022-12-24T19:31:26.351Z,37.83
2022-12-24T19:33:57.228Z,36.78
2022-12-24T19:36:28.467Z,41.45
2022-12-24T19:38:57.048Z,42.20
2022-12-24T19:41:27.917Z,42.17
2022-12-24T19:43:59.669Z,39.75
2022-12-24T19:46:34.233Z,35.72
2022-12-24T19:49:05.441Z,42.95
2022-12-24T19:51:33.990Z,41.10
2022-12-24T19:54:01.763Z,45.33
2022-12-24T19:56:31.739Z,45.25
2022-12-24T19:59:02.053Z,48.05
2022-12-24T20:01:32.702Z,42.33
2022-12-24T20:04:00.926Z,47.70
2022-12-24T20:06:32.433Z,51.28
2022-12-24T20:09:02.200Z,46.50
2022-12-24T20:11:29.948Z,50.72
2022-12-24T20:13:59.737Z,40.78
2022-12-24T20:16:27.795Z,56.53
2022-12-24T20:18:58.261Z,46.15
2022-12-24T20:21:26.527Z,43.50
2022-12-24T20:23:54.500Z,44.70
2022-12-24T20:26:26.112Z,48.25
2022-12-24T20:28:53.845Z,51.53
2022-12-24T20:31:25.273Z,55.03
2022-12-24T20:33:53.099Z,55.83
2022-12-24T20:36:22.957Z,54.05
2022-12-24T20:38:51.246Z,51.17
2022-12-24T20:41:21.847Z,54.53
2022-12-24T20:43:49.814Z,52.53
2022-12-24T20:46:20.258Z,52.75
2022-12-24T20:48:48.207Z,53.83
2022-12-24T20:51:24.421Z,82.50
2022-12-24T20:53:58.685Z,54.17
2022-12-24T20:56:26.696Z,69.75
2022-12-24T20:58:53.927Z,49.30
2022-12-24T21:01:26.239Z,47.50
2022-12-24T21:03:55.527Z,54.55
2022-12-24T21:06:24.539Z,70.95
2022-12-24T21:08:53.609Z,57.25
2022-12-24T21:11:41.050Z,53.80
2022-12-24T21:14:08.474Z,40.85
2022-12-24T21:16:37.235Z,44.13
2022-12-24T21:19:05.814Z,53.58
2022-12-24T21:21:35.218Z,50.45
2022-12-24T21:24:03.466Z,65.55
2022-12-24T21:26:31.961Z,39.72
2022-12-24T21:28:59.897Z,51.05
2022-12-24T21:31:28.253Z,44.65
2022-12-24T21:33:56.555Z,193.32
2022-12-24T21:36:24.633Z,311.45
2022-12-24T21:38:54.277Z,285.38
2022-12-24T21:41:26.107Z,50.90
2022-12-24T21:43:53.571Z,84.90
2022-12-24T21:46:25.043Z,138.70
2022-12-24T21:49:12.526Z,73.38
2022-12-24T21:51:41.237Z,60.30
2022-12-24T21:54:23.898Z,84.65
2022-12-24T21:57:37.321Z,55.53
2022-12-24T22:00:26.681Z,78.57
2022-12-24T22:02:58.075Z,51.38
2022-12-24T22:05:26.456Z,75.18
2022-12-24T22:08:12.886Z,59.47
2022-12-24T22:10:59.450Z,64.45
2022-12-24T22:13:29.677Z,48.88
2022-12-24T22:15:57.261Z,74.93
2022-12-24T22:18:26.426Z,76.95
2022-12-24T22:20:53.673Z,66.50
2022-12-24T22:23:20.896Z,72.88
2022-12-24T22:25:48.152Z,82.50
2022-12-24T22:28:15.256Z,77.10
2022-12-24T22:30:43.202Z,70.15
2022-12-24T22:33:10.898Z,80.97
2022-12-24T22:35:40.032Z,81.22
2022-12-24T22:38:09.544Z,81.38
2022-12-24T22:40:40.139Z,63.03
2022-12-24T22:43:07.311Z,81.10
2022-12-24T22:45:34.421Z,66.82
2022-12-24T22:48:02.674Z,81.38
2022-12-24T22:50:29.973Z,76.00
2022-12-24T22:52:57.151Z,69.25
2022-12-24T22:55:25.151Z,74.82
2022-12-24T22:57:52.371Z,59.25
2022-12-24T23:00:44.477Z,71.18
2022-12-24T23:03:11.995Z,64.88
2022-12-24T23:05:39.790Z,78.43
2022-12-24T23:08:07.637Z,88.93
2022-12-24T23:10:35.775Z,66.82
2022-12-24T23:13:21.525Z,63.85
2022-12-24T23:15:49.274Z,63.13
2022-12-24T23:18:16.576Z,76.45
2022-12-24T23:20:48.250Z,85.35
2022-12-24T23:23:18.868Z,63.38
2022-12-24T23:25:46.000Z,86.10
2022-12-24T23:28:13.023Z,60.97
2022-12-24T23:30:40.035Z,58.40
2022-12-24T23:33:07.253Z,72.63
2022-12-24T23:35:34.399Z,92.15
2022-12-24T23:38:01.549Z,78.50
2022-12-24T23:40:28.626Z,74.20
2022-12-24T23:42:55.651Z,112.70
2022-12-24T23:45:23.222Z,61.38
2022-12-24T23:47:50.276Z,81.05
2022-12-24T23:50:17.639Z,79.40
2022-12-24T23:52:44.753Z,86.72
2022-12-24T23:55:11.854Z,74.13
2022-12-24T23:57:38.845Z,62.70
